Time;durP1;ratioP1;P1;durP2;ratioP2;P2;SDS_P1;SDS_P2;PMS_P1;PMS_P2;Temp;Humidity;BMP_temperature;BMP_pressure;BME280_temperature;BME280_humidity;BME280_pressure;Samples;Min_cycle;Max_cycle;Signal;HPM_P1;HPM_P2
2022/09/11 00:01:21;;;;;;;27.90;17.00;;;;;;;13.21;100.00;101566.78;5028920;28;20029;-81
2022/09/11 00:03:47;;;;;;;24.88;14.88;;;;;;;13.20;100.00;101565.06;5025383;28;20518;-81
2022/09/11 00:06:16;;;;;;;26.70;15.82;;;;;;;13.20;100.00;101570.47;5045918;28;20020;-81
2022/09/11 00:08:41;;;;;;;27.10;14.47;;;;;;;13.19;100.00;101562.47;5049480;28;20033;-81
2022/09/11 00:11:10;;;;;;;24.55;14.90;;;;;;;13.17;100.00;101562.59;5047608;28;20444;-81
2022/09/11 00:13:36;;;;;;;26.55;15.25;;;;;;;13.18;100.00;101568.88;5042260;28;20025;-81
2022/09/11 00:16:04;;;;;;;25.45;14.93;;;;;;;13.16;100.00;101562.69;5047842;28;20047;-81
2022/09/11 00:18:29;;;;;;;26.92;14.85;;;;;;;13.13;100.00;101562.94;5048800;28;20102;-81
2022/09/11 00:20:56;;;;;;;26.58;15.63;;;;;;;13.11;100.00;101569.28;5047381;28;20056;-81
2022/09/11 00:23:24;;;;;;;27.98;15.75;;;;;;;13.09;100.00;101567.69;5048154;28;20064;-81
2022/09/11 00:25:50;;;;;;;27.05;15.50;;;;;;;13.04;100.00;101565.31;5045220;28;20514;-81
2022/09/11 00:28:19;;;;;;;26.13;15.63;;;;;;;13.03;100.00;101570.81;5047777;28;20113;-81
2022/09/11 00:30:47;;;;;;;27.17;16.30;;;;;;;13.00;100.00;101566.53;5046209;28;20447;-81
2022/09/11 00:33:14;;;;;;;29.50;15.82;;;;;;;13.01;100.00;101578.19;5047897;28;20033;-81
2022/09/11 00:35:40;;;;;;;27.23;15.57;;;;;;;13.02;100.00;101575.38;5049053;28;20094;-81
2022/09/11 00:38:10;;;;;;;29.15;15.93;;;;;;;13.05;100.00;101575.13;5048075;28;20090;-82
2022/09/11 00:40:46;;;;;;;26.40;16.40;;;;;;;13.05;100.00;101575.13;5046359;28;20029;-82
2022/09/11 00:43:15;;;;;;;26.95;16.70;;;;;;;13.01;100.00;101583.56;5036957;28;20059;-82
2022/09/11 00:45:42;;;;;;;31.92;16.95;;;;;;;12.98;100.00;101581.94;5038378;28;20021;-82
2022/09/11 00:48:10;;;;;;;28.50;17.27;;;;;;;12.98;100.00;101581.09;5048585;28;20112;-82
2022/09/11 00:50:35;;;;;;;27.63;16.33;;;;;;;12.93;100.00;101582.28;5046981;28;20048;-82
2022/09/11 00:53:07;;;;;;;34.13;16.17;;;;;;;12.90;100.00;101587.91;5037134;28;20115;-81
2022/09/11 00:55:36;;;;;;;26.35;16.67;;;;;;;12.87;100.00;101590.81;5044862;28;20083;-81
2022/09/11 00:58:06;;;;;;;28.85;15.70;;;;;;;12.85;100.00;101598.16;5031431;28;20120;-82
2022/09/11 01:00:32;;;;;;;26.98;16.85;;;;;;;12.83;100.00;101588.47;5040140;28;20037;-81
2022/09/11 01:02:57;;;;;;;29.02;17.05;;;;;;;12.81;100.00;101588.56;5024797;28;20075;-81
2022/09/11 01:05:26;;;;;;;29.10;15.70;;;;;;;12.79;100.00;101589.66;5039909;28;20036;-81
2022/09/11 01:07:53;;;;;;;27.80;16.38;;;;;;;12.76;100.00;101596.97;5049216;28;20056;-81
2022/09/11 01:10:41;;;;;;;26.58;16.10;;;;;;;12.79;100.00;101606.69;5048958;28;20068;-81
2022/09/11 01:13:37;;;;;;;33.30;19.13;;;;;;;12.80;100.00;101604.84;5043590;28;20080;-81
2022/09/11 01:16:27;;;;;;;33.90;20.58;;;;;;;12.83;100.00;101601.94;5038808;28;20029;-81
2022/09/11 01:18:55;;;;;;;;;;;;;;;12.91;100.00;101600.44;5043193;28;20380;-81
2022/09/11 01:21:39;;;;;;;35.78;19.58;;;;;;;12.90;100.00;101603.25;5047428;28;19916;-81
2022/09/11 01:24:41;;;;;;;31.92;21.35;;;;;;;12.89;100.00;101599.66;5047614;28;20392;-81
2022/09/11 01:27:36;;;;;;;31.08;20.08;;;;;;;12.89;100.00;101596.09;5050286;28;20044;-81
2022/09/11 01:30:15;;;;;;;31.85;19.00;;;;;;;12.87;100.00;101598.03;5046937;28;20467;-81
2022/09/11 01:32:46;;;;;;;35.78;23.45;;;;;;;12.86;100.00;101591.78;5037155;28;20036;-81
2022/09/11 01:35:20;;;;;;;29.77;19.65;;;;;;;12.84;100.00;101599.13;5049548;28;20060;-81
2022/09/11 01:37:58;;;;;;;31.17;19.13;;;;;;;12.84;100.00;101598.25;5049258;28;20037;-81
2022/09/11 01:40:25;;;;;;;30.17;18.23;;;;;;;12.80;100.00;101597.63;5048444;28;20032;-80
2022/09/11 01:42:56;;;;;;;29.52;18.27;;;;;;;12.76;100.00;101601.50;5068021;28;20566;-80
2022/09/11 01:45:24;;;;;;;34.45;21.50;;;;;;;12.75;100.00;101605.16;5049865;28;20063;-80
2022/09/11 01:47:52;;;;;;;32.85;20.48;;;;;;;12.72;100.00;101605.38;5050193;28;20036;-80
2022/09/11 01:50:20;;;;;;;32.25;19.00;;;;;;;12.71;100.00;101609.06;5050669;28;20456;-80
2022/09/11 01:52:59;;;;;;;29.70;18.67;;;;;;;12.70;100.00;101605.50;5052023;28;20056;-80
2022/09/11 01:55:38;;;;;;;31.80;19.58;;;;;;;12.70;100.00;101613.59;5052439;28;20025;-80
2022/09/11 01:58:10;;;;;;;31.27;18.92;;;;;;;12.67;100.00;101615.66;5050748;28;20336;-80
2022/09/11 02:00:37;;;;;;;34.28;19.10;;;;;;;12.65;100.00;101613.06;5041808;28;20028;-80
2022/09/11 02:03:10;;;;;;;31.00;19.42;;;;;;;12.64;100.00;101613.16;5025926;28;20504;-80
2022/09/11 02:05:57;;;;;;;29.70;17.40;;;;;;;12.62;100.00;101607.88;5031670;28;20388;-80
2022/09/11 02:08:35;;;;;;;31.60;19.02;;;;;;;12.56;100.00;101622.66;5037698;28;20049;-81
2022/09/11 02:11:05;;;;;;;30.67;19.33;;;;;;;12.51;100.00;101619.41;5047043;28;20476;-81
2022/09/11 02:13:41;;;;;;;31.23;20.33;;;;;;;12.48;100.00;101616.91;5039815;28;20448;-81
2022/09/11 02:16:16;;;;;;;32.97;19.75;;;;;;;12.45;100.00;101617.13;5047100;28;20120;-81
2022/09/11 02:18:50;;;;;;;30.67;19.33;;;;;;;12.42;100.00;101620.03;5050686;28;20017;-81
2022/09/11 02:21:15;;;;;;;30.58;19.75;;;;;;;12.41;100.00;101623.69;5052542;28;20357;-81
2022/09/11 02:23:41;;;;;;;28.83;18.52;;;;;;;12.40;100.00;101621.97;5051787;28;20043;-81
2022/09/11 02:26:08;;;;;;;30.00;19.83;;;;;;;12.40;100.00;101619.25;5051507;28;20240;-81
2022/09/11 02:28:33;;;;;;;30.10;19.98;;;;;;;12.37;100.00;101633.84;5048690;28;20067;-81
2022/09/11 02:31:01;;;;;;;33.78;20.63;;;;;;;12.36;100.00;101631.25;5048574;28;20060;-81
2022/09/11 02:33:31;;;;;;;32.28;20.08;;;;;;;12.34;100.00;101622.38;5046482;28;20116;-81
2022/09/11 02:36:01;;;;;;;;;;;;;;;12.41;100.00;101619.16;5039423;28;20032;-81
2022/09/11 02:38:38;;;;;;;32.22;20.38;;;;;;;12.31;100.00;101622.59;5045567;28;20340;-80
2022/09/11 02:41:18;;;;;;;30.27;19.27;;;;;;;12.29;100.00;101628.09;5049222;28;20021;-80
2022/09/11 02:43:55;;;;;;;;;;;;;;;12.36;100.00;101621.31;5039912;28;20120;-80
2022/09/11 02:47:04;;;;;;;30.38;19.58;;;;;;;12.30;100.00;101623.56;5063756;28;19913;-80
2022/09/11 02:49:44;;;;;;;32.13;20.13;;;;;;;12.23;100.00;101626.69;5035343;28;20078;-80
2022/09/11 02:52:29;;;;;;;31.00;19.52;;;;;;;12.23;100.00;101629.38;5050622;28;20029;-80
2022/09/11 02:55:17;;;;;;;29.13;18.73;;;;;;;12.17;100.00;101632.50;5043876;28;20078;-80
2022/09/11 02:58:01;;;;;;;29.75;19.77;;;;;;;12.19;100.00;101627.84;5051272;28;20029;-80
2022/09/11 03:00:27;;;;;;;30.38;19.00;;;;;;;12.16;100.00;101635.28;5043432;28;20040;-80
2022/09/11 03:02:52;;;;;;;31.67;19.02;;;;;;;12.15;100.00;101634.44;5028715;28;20033;-80
2022/09/11 03:05:18;;;;;;;29.90;18.83;;;;;;;12.15;100.00;101633.56;5051195;28;20475;-80
2022/09/11 03:07:43;;;;;;;32.15;19.23;;;;;;;12.15;100.00;101633.56;5045201;28;20029;-82
2022/09/11 03:10:10;;;;;;;36.75;21.98;;;;;;;12.15;100.00;101642.53;5031566;28;20057;-82
2022/09/11 03:12:36;;;;;;;34.92;20.55;;;;;;;12.14;100.00;101642.59;5033235;28;20040;-82
2022/09/11 03:15:01;;;;;;;36.03;21.45;;;;;;;12.16;100.00;101646.94;5030344;28;20056;-82
2022/09/11 03:17:27;;;;;;;33.83;19.85;;;;;;;12.17;100.00;101648.66;5061193;28;20030;-82
2022/09/11 03:19:52;;;;;;;36.17;20.75;;;;;;;12.19;100.00;101644.03;5048120;28;20024;-82
2022/09/11 03:22:18;;;;;;;65.18;28.10;;;;;;;12.23;100.00;101645.53;5051698;28;20028;-82
2022/09/11 03:24:43;;;;;;;62.95;23.77;;;;;;;12.27;100.00;101645.34;5051053;28;20145;-83
2022/09/11 03:27:09;;;;;;;67.18;23.60;;;;;;;12.24;100.00;101638.34;5050405;28;20027;-83
2022/09/11 03:29:34;;;;;;;42.95;20.55;;;;;;;12.26;100.00;101641.78;5047871;28;20036;-82
2022/09/11 03:32:00;;;;;;;53.22;21.65;;;;;;;12.24;100.00;101639.19;5042830;28;20167;-82
2022/09/11 03:34:25;;;;;;;55.03;20.63;;;;;;;12.22;100.00;101635.72;5046170;28;20063;-82
2022/09/11 03:36:51;;;;;;;36.67;18.48;;;;;;;12.23;100.00;101650.94;5037995;28;20078;-82
2022/09/11 03:39:16;;;;;;;52.67;18.38;;;;;;;12.20;100.00;101642.22;5046033;28;20124;-82
2022/09/11 03:41:42;;;;;;;43.00;17.13;;;;;;;12.17;100.00;101651.34;5049592;28;20036;-82
2022/09/11 03:44:07;;;;;;;28.58;16.92;;;;;;;12.14;100.00;101645.28;5050340;28;20021;-82
2022/09/11 03:46:33;;;;;;;38.88;17.20;;;;;;;12.13;100.00;101652.53;5047950;28;20468;-82
2022/09/11 03:48:59;;;;;;;39.03;17.02;;;;;;;12.11;100.00;101649.09;5049814;28;20021;-82
2022/09/11 03:51:25;;;;;;;62.95;17.38;;;;;;;12.12;100.00;101644.53;5050466;28;20039;-82
2022/09/11 03:53:50;;;;;;;36.70;15.05;;;;;;;12.10;100.00;101655.44;5048126;28;20495;-82
2022/09/11 03:56:16;;;;;;;36.33;15.38;;;;;;;12.11;100.00;101646.38;5047286;28;20033;-82
2022/09/11 03:58:42;;;;;;;35.20;15.18;;;;;;;12.10;100.00;101646.50;5045258;28;20135;-82
2022/09/11 04:01:14;;;;;;;32.15;15.40;;;;;;;12.09;100.00;101644.75;5034539;28;20025;-82
2022/09/11 04:03:41;;;;;;;38.78;16.83;;;;;;;12.07;100.00;101644.84;5025811;28;20044;-82
2022/09/11 04:06:07;;;;;;;32.45;15.30;;;;;;;12.05;100.00;101646.81;5048655;28;20098;-82
2022/09/11 04:08:32;;;;;;;26.20;14.68;;;;;;;12.04;100.00;101645.91;5047576;28;20074;-82
2022/09/11 04:11:03;;;;;;;36.50;15.18;;;;;;;12.02;100.00;101642.47;5046245;28;20106;-82
2022/09/11 04:13:36;;;;;;;32.13;15.50;;;;;;;12.03;100.00;101640.63;5049379;28;20033;-83
2022/09/11 04:16:09;;;;;;;28.58;15.55;;;;;;;11.98;100.00;101640.09;5045887;28;20032;-83
2022/09/11 04:18:37;;;;;;;33.00;14.75;;;;;;;11.94;100.00;101642.13;5049133;28;20523;-82
2022/09/11 04:21:07;;;;;;;24.98;14.27;;;;;;;11.95;100.00;101645.66;5046485;28;20028;-82
2022/09/11 04:23:33;;;;;;;30.52;15.68;;;;;;;11.93;100.00;101647.56;5035502;28;20025;-82
2022/09/11 04:25:59;;;;;;;32.45;16.35;;;;;;;11.92;100.00;101651.22;5050691;28;20028;-82
2022/09/11 04:28:28;;;;;;;27.73;14.05;;;;;;;11.93;100.00;101644.88;5049320;28;20481;-82
2022/09/11 04:30:55;;;;;;;30.13;15.73;;;;;;;11.93;100.00;101647.56;5048093;28;20061;-82
2022/09/11 04:33:21;;;;;;;47.92;14.88;;;;;;;11.93;100.00;101647.56;5045524;28;20288;-82
2022/09/11 04:35:46;;;;;;;33.17;15.13;;;;;;;11.93;100.00;101643.06;5048159;28;20110;-82
2022/09/11 04:38:12;;;;;;;49.50;16.73;;;;;;;11.92;100.00;101646.72;5047133;28;20025;-82
2022/09/11 04:40:37;;;;;;;47.60;17.02;;;;;;;11.94;100.00;101646.66;5049204;28;20115;-82
2022/09/11 04:43:02;;;;;;;40.28;17.27;;;;;;;11.96;100.00;101658.16;5047080;28;20059;-82
2022/09/11 04:45:32;;;;;;;45.33;17.42;;;;;;;11.96;100.00;101650.09;5045152;28;20036;-82
2022/09/11 04:47:58;;;;;;;52.42;18.17;;;;;;;11.98;100.00;101653.56;5046455;28;20059;-82
2022/09/11 04:50:24;;;;;;;79.60;19.13;;;;;;;11.98;100.00;101658.94;5050654;28;20037;-82
2022/09/11 04:52:49;;;;;;;54.00;18.15;;;;;;;11.96;100.00;101669.84;5038883;28;20041;-82
2022/09/11 04:55:14;;;;;;;51.80;17.63;;;;;;;11.96;100.00;101666.25;5046561;28;20128;-82
2022/09/11 04:57:40;;;;;;;45.40;17.15;;;;;;;11.94;100.00;101662.81;5038555;28;20079;-82
2022/09/11 05:00:06;;;;;;;44.00;16.55;;;;;;;11.94;100.00;101657.44;5046401;28;20642;-82
2022/09/11 05:02:31;;;;;;;41.83;16.55;;;;;;;11.94;100.00;101657.44;5027882;28;20546;-82
2022/09/11 05:04:57;;;;;;;35.03;16.20;;;;;;;11.93;100.00;101653.84;5052213;28;20029;-82
2022/09/11 05:07:24;;;;;;;31.00;17.30;;;;;;;11.89;100.00;101655.84;5050810;28;20025;-82
2022/09/11 05:09:51;;;;;;;42.95;17.13;;;;;;;11.88;100.00;101651.44;5048683;28;20132;-82
2022/09/11 05:12:16;;;;;;;48.85;18.40;;;;;;;11.89;100.00;101666.63;5050773;28;20048;-82
2022/09/11 05:14:42;;;;;;;42.00;16.63;;;;;;;11.88;100.00;101670.28;5051710;28;20036;-83
2022/09/11 05:17:07;;;;;;;45.92;16.80;;;;;;;11.91;100.00;101669.22;5045735;28;20114;-82
2022/09/11 05:19:32;;;;;;;40.28;17.67;;;;;;;11.92;100.00;101687.13;5051060;28;20025;-82
2022/09/11 05:21:57;;;;;;;26.92;15.32;;;;;;;11.92;100.00;101687.13;5053849;28;20033;-82
2022/09/11 05:24:23;;;;;;;29.48;15.32;;;;;;;11.87;100.00;101686.53;5052117;28;20145;-82
2022/09/11 05:26:48;;;;;;;37.80;16.58;;;;;;;11.82;100.00;101684.16;5050922;28;20035;-82
2022/09/11 05:29:14;;;;;;;34.80;15.50;;;;;;;11.79;100.00;101691.59;5049383;28;20142;-82
2022/09/11 05:31:40;;;;;;;38.13;15.80;;;;;;;11.74;100.00;101704.47;5045309;28;20036;-82
2022/09/11 05:34:06;;;;;;;29.67;15.55;;;;;;;11.70;100.00;101703.81;5052006;28;20499;-82
2022/09/11 05:36:33;;;;;;;25.52;12.77;;;;;;;11.63;100.00;101713.25;5049754;28;20028;-82
2022/09/11 05:38:58;;;;;;;31.88;13.73;;;;;;;11.62;100.00;101716.91;5042460;28;20472;-82
2022/09/11 05:41:24;;;;;;;30.73;14.32;;;;;;;11.61;100.00;101717.84;5050857;28;20025;-82
2022/09/11 05:43:50;;;;;;;27.58;13.57;;;;;;;11.59;100.00;101715.25;5049637;28;20051;-82
2022/09/11 05:46:18;;;;;;;29.60;14.07;;;;;;;11.59;100.00;101727.88;5050276;28;20036;-82
2022/09/11 05:48:44;;;;;;;23.92;13.57;;;;;;;11.58;100.00;101726.13;5050526;28;20029;-82
2022/09/11 05:51:12;;;;;;;33.53;14.55;;;;;;;11.59;100.00;101733.25;5051782;28;20400;-82
2022/09/11 05:53:38;;;;;;;26.75;13.98;;;;;;;11.60;100.00;101733.16;5049251;28;20051;-82
2022/09/11 05:56:08;;;;;;;25.35;14.70;;;;;;;11.61;100.00;101736.69;5049836;28;20024;-82
2022/09/11 05:58:33;;;;;;;23.00;13.23;;;;;;;11.59;100.00;101738.63;5050645;28;20048;-82
2022/09/11 06:01:07;;;;;;;28.33;12.98;;;;;;;11.59;100.00;101749.41;5038771;28;20029;-82
2022/09/11 06:03:33;;;;;;;26.80;13.50;;;;;;;11.60;100.00;101745.75;5059770;28;20039;-82
2022/09/11 06:06:01;;;;;;;29.23;14.30;;;;;;;11.58;100.00;101743.16;5051483;28;20029;-82
2022/09/11 06:08:26;;;;;;;27.08;14.25;;;;;;;11.60;100.00;101745.75;5051526;28;20366;-83
2022/09/11 06:10:52;;;;;;;32.88;14.65;;;;;;;11.60;100.00;101748.47;5051186;28;20055;-82
2022/09/11 06:13:17;;;;;;;26.40;15.23;;;;;;;11.65;100.00;101754.41;5046630;28;20412;-82
2022/09/11 06:15:44;;;;;;;43.13;16.30;;;;;;;11.68;100.00;101754.19;5049986;28;20534;-82
2022/09/11 06:18:09;;;;;;;52.03;16.02;;;;;;;11.70;100.00;101752.28;5047455;28;20527;-82
2022/09/11 06:20:34;;;;;;;25.23;14.40;;;;;;;11.72;100.00;101755.75;5050934;28;20021;-82
2022/09/11 06:23:00;;;;;;;38.45;15.52;;;;;;;11.74;100.00;101755.63;5051334;28;20021;-82
2022/09/11 06:25:25;;;;;;;28.15;15.15;;;;;;;11.77;100.00;101764.41;5048934;28;20460;-82
2022/09/11 06:27:50;;;;;;;40.78;16.17;;;;;;;11.82;100.00;101773.03;5048800;28;20044;-82
2022/09/11 06:30:16;;;;;;;37.92;16.60;;;;;;;11.84;100.00;101771.09;5049377;28;20099;-82
2022/09/11 06:32:41;;;;;;;36.03;15.95;;;;;;;11.87;100.00;101773.63;5038383;28;20037;-82
2022/09/11 06:35:07;;;;;;;41.90;15.18;;;;;;;11.88;100.00;101778.03;5041128;28;20439;-82
2022/09/11 06:37:32;;;;;;;37.45;16.75;;;;;;;11.97;100.00;101773.06;5046459;28;20465;-82
2022/09/11 06:39:57;;;;;;;32.80;16.00;;;;;;;12.00;100.00;101776.41;5050695;28;20100;-82
2022/09/11 06:42:23;;;;;;;51.88;15.63;;;;;;;12.04;100.00;101777.94;5050081;28;20021;-82
2022/09/11 06:44:50;;;;;;;54.38;15.98;;;;;;;12.08;100.00;101773.25;5049600;28;20025;-82
2022/09/11 06:47:15;;;;;;;45.03;16.85;;;;;;;12.12;100.00;101774.75;5049859;28;20485;-82
2022/09/11 06:49:41;;;;;;;49.65;16.70;;;;;;;12.12;100.00;101774.75;5050772;28;20111;-82
2022/09/11 06:52:06;;;;;;;31.88;15.95;;;;;;;12.15;100.00;101784.47;5038644;28;20037;-82
2022/09/11 06:54:31;;;;;;;41.97;17.30;;;;;;;12.23;100.00;101783.00;5050626;28;20024;-82
2022/09/11 06:56:56;;;;;;;52.13;17.33;;;;;;;12.31;100.00;101789.72;5049500;28;20036;-82
2022/09/11 06:59:22;;;;;;;55.50;19.10;;;;;;;12.35;100.00;101786.72;5049066;28;20488;-83
2022/09/11 07:01:49;;;;;;;100.20;20.17;;;;;;;12.38;100.00;101793.75;5029169;28;20462;-82
2022/09/11 07:04:14;;;;;;;48.38;16.80;;;;;;;12.43;100.00;101786.22;5029785;28;20040;-82
2022/09/11 07:06:39;;;;;;;58.92;17.60;;;;;;;12.51;100.00;101788.41;5048609;28;20532;-82
2022/09/11 07:09:05;;;;;;;63.03;19.10;;;;;;;12.53;100.00;101795.44;5048363;28;20021;-82
2022/09/11 07:11:33;;;;;;;36.85;18.23;;;;;;;12.65;100.00;101800.97;5032045;28;20045;-82
2022/09/11 07:14:00;;;;;;;51.00;19.40;;;;;;;12.67;100.00;101794.50;5042519;28;20047;-82
2022/09/11 07:16:25;;;;;;;35.80;17.38;;;;;;;12.73;100.00;101791.38;5048396;28;20017;-82
2022/09/11 07:18:50;;;;;;;55.95;17.58;;;;;;;12.75;100.00;101783.19;5046351;28;20094;-82
2022/09/11 07:21:17;;;;;;;33.95;17.17;;;;;;;12.81;100.00;101788.19;5040816;28;20039;-82
2022/09/11 07:23:49;;;;;;;89.65;18.90;;;;;;;12.81;100.00;101780.09;5041251;28;20449;-82
2022/09/11 07:26:15;;;;;;;48.15;16.80;;;;;;;12.82;100.00;101789.91;5031523;28;20026;-82
2022/09/11 07:28:41;;;;;;;60.08;17.77;;;;;;;12.88;100.00;101788.63;5039489;28;20083;-83
2022/09/11 07:31:15;;;;;;;57.65;18.63;;;;;;;12.92;100.00;101788.31;5050544;28;20064;-83
2022/09/11 07:33:47;;;;;;;36.63;17.55;;;;;;;12.96;100.00;101786.28;5046767;28;20472;-83
2022/09/11 07:36:17;;;;;;;45.80;18.52;;;;;;;13.07;100.00;101786.38;5047404;28;20226;-83
2022/09/11 07:38:44;;;;;;;85.40;19.50;;;;;;;13.10;100.00;101788.00;5046903;28;20036;-83
2022/09/11 07:41:10;;;;;;;69.25;19.73;;;;;;;13.18;100.00;101791.06;5049423;28;20048;-83
2022/09/11 07:43:37;;;;;;;36.63;17.83;;;;;;;13.23;100.00;101796.97;5048002;28;20429;-83
2022/09/11 07:46:04;;;;;;;52.33;19.05;;;;;;;13.27;100.00;101789.56;5046008;28;20055;-83
2022/09/11 07:48:30;;;;;;;48.25;18.42;;;;;;;13.28;100.00;101788.59;5048959;28;20112;-83
2022/09/11 07:51:01;;;;;;;46.53;19.08;;;;;;;13.32;100.00;101790.06;5047770;28;20043;-84
2022/09/11 07:53:30;;;;;;;31.80;20.13;;;;;;;13.42;100.00;101787.63;5046313;28;20055;-83
2022/09/11 07:56:00;;;;;;;41.42;19.75;;;;;;;13.46;100.00;101794.56;5046797;28;20102;-83
2022/09/11 07:58:26;;;;;;;33.05;20.13;;;;;;;13.50;100.00;101789.78;5045377;28;20037;-83
2022/09/11 08:00:57;;;;;;;44.22;20.38;;;;;;;13.54;100.00;101792.16;5038191;28;20029;-83
2022/09/11 08:03:22;;;;;;;30.30;19.08;;;;;;;13.61;100.00;101804.25;5025494;28;20029;-84
2022/09/11 08:05:48;;;;;;;36.85;20.05;;;;;;;13.68;100.00;101803.84;5045207;28;20156;-83
2022/09/11 08:08:13;;;;;;;35.42;20.52;;;;;;;13.79;100.00;101793.13;5046311;28;20121;-83
2022/09/11 08:10:39;;;;;;;35.60;21.80;;;;;;;13.87;100.00;101792.59;5048040;28;20037;-83
2022/09/11 08:13:05;;;;;;;32.65;19.92;;;;;;;13.97;100.00;101797.19;5048130;28;20025;-83
2022/09/11 08:15:30;;;;;;;32.78;21.45;;;;;;;14.05;100.00;101803.88;5043416;28;20366;-83
2022/09/11 08:17:55;;;;;;;34.03;22.45;;;;;;;14.09;100.00;101808.97;5042657;28;20043;-83
2022/09/11 08:20:21;;;;;;;35.03;22.20;;;;;;;14.21;100.00;101818.00;5047851;28;20036;-83
2022/09/11 08:22:46;;;;;;;35.92;22.52;;;;;;;14.25;100.00;101810.56;5050104;28;20032;-83
2022/09/11 08:25:12;;;;;;;35.03;23.20;;;;;;;14.31;100.00;101819.06;5047778;28;20040;-82
2022/09/11 08:27:38;;;;;;;34.05;23.00;;;;;;;14.36;100.00;101823.25;5047896;28;20021;-82
2022/09/11 08:30:03;;;;;;;36.40;22.77;;;;;;;14.37;100.00;101822.28;5049293;28;20033;-83
2022/09/11 08:32:29;;;;;;;36.20;25.45;;;;;;;14.39;100.00;101823.88;5040619;28;20051;-83
2022/09/11 08:34:54;;;;;;;38.70;25.33;;;;;;;14.46;100.00;101827.00;5041387;28;20060;-83
2022/09/11 08:37:19;;;;;;;35.28;25.00;;;;;;;14.56;100.00;101824.50;5049691;28;20469;-83
2022/09/11 08:39:48;;;;;;;40.78;25.10;;;;;;;14.62;100.00;101827.63;5045389;28;20025;-83
2022/09/11 08:42:15;;;;;;;38.15;24.13;;;;;;;14.68;100.00;101821.78;5050437;28;20067;-81
2022/09/11 08:44:56;;;;;;;40.80;24.63;;;;;;;14.79;100.00;101823.66;5050193;28;20095;-80
2022/09/11 08:47:26;;;;;;;37.17;24.85;;;;;;;14.85;100.00;101827.75;5049894;28;20123;-81
2022/09/11 08:50:04;;;;;;;41.78;28.48;;;;;;;14.90;100.00;101838.22;5053003;28;20124;-81
2022/09/11 08:52:32;;;;;;;38.95;26.30;;;;;;;14.97;100.00;101834.06;5052302;28;20029;-81
2022/09/11 08:54:58;;;;;;;38.97;26.92;;;;;;;15.02;100.00;101835.44;5051852;28;20025;-81
2022/09/11 08:57:38;;;;;;;30.83;20.48;;;;;;;15.09;100.00;101829.56;5048703;28;20029;-81
2022/09/11 09:00:17;;;;;;;39.67;26.38;;;;;;;15.18;100.00;101831.53;5046286;28;20040;-80
2022/09/11 09:03:01;;;;;;;40.78;26.55;;;;;;;15.24;100.00;101835.63;5030860;28;20475;-81
2022/09/11 09:05:54;;;;;;;41.30;28.73;;;;;;;15.28;100.00;101834.41;5048958;28;20333;-81
2022/09/11 09:08:41;;;;;;;42.22;28.70;;;;;;;15.37;100.00;101828.25;5046177;28;20120;-81
2022/09/11 09:11:12;;;;;;;39.38;28.00;;;;;;;15.43;100.00;101837.75;5048753;28;20135;-81
2022/09/11 09:13:50;;;;;;;39.38;27.08;;;;;;;15.44;100.00;101845.78;5048634;28;20544;-81
2022/09/11 09:16:30;;;;;;;40.10;26.23;;;;;;;15.50;100.00;101844.44;5045934;28;20037;-81
2022/09/11 09:19:02;;;;;;;36.13;27.30;;;;;;;15.50;100.00;101842.56;5065562;28;20021;-81
2022/09/11 09:21:38;;;;;;;41.85;26.73;;;;;;;15.56;100.00;101838.53;5053911;28;20028;-81
2022/09/11 09:24:18;;;;;;;40.08;27.27;;;;;;;15.61;100.00;101849.88;5048335;28;20368;-81
2022/09/11 09:26:48;;;;;;;37.03;26.25;;;;;;;15.63;100.00;101844.34;5047948;28;20479;-81
2022/09/11 09:29:17;;;;;;;39.75;26.70;;;;;;;15.64;100.00;101849.63;5042771;28;20031;-82
2022/09/11 09:31:46;;;;;;;37.67;26.45;;;;;;;15.69;100.00;101851.97;5044794;28;20029;-82
2022/09/11 09:34:20;;;;;;;41.83;27.73;;;;;;;15.73;100.00;101857.03;5044041;28;20032;-82
2022/09/11 09:36:56;;;;;;;40.35;26.85;;;;;;;15.80;100.00;101849.31;5051122;28;20044;-82
2022/09/11 09:39:22;;;;;;;31.65;20.35;;;;;;;15.87;100.00;101853.25;5043320;28;20079;-80
2022/09/11 09:42:22;;;;;;;24.65;13.63;;;;;;;15.93;100.00;101856.44;5044661;28;20473;-78
2022/09/11 09:45:03;;;;;;;37.97;25.50;;;;;;;16.02;100.00;101856.59;5045744;28;20036;-78
2022/09/11 09:47:28;;;;;;;36.85;26.33;;;;;;;16.07;100.00;101854.34;5044483;28;20033;-78
2022/09/11 09:49:56;;;;;;;37.92;27.65;;;;;;;16.15;100.00;101856.47;5045026;28;20539;-78
2022/09/11 09:52:33;;;;;;;36.63;26.30;;;;;;;16.21;100.00;101855.97;5039158;28;20469;-78
2022/09/11 09:55:03;;;;;;;35.33;25.25;;;;;;;16.25;100.00;101843.88;5034216;28;20582;-78
2022/09/11 09:57:31;;;;;;;36.55;25.42;;;;;;;16.29;100.00;101846.34;5034859;28;20489;-80
2022/09/11 10:00:11;;;;;;;35.95;24.52;;;;;;;16.36;100.00;101842.13;5038227;28;20029;-82
2022/09/11 10:02:44;;;;;;;35.60;24.73;;;;;;;16.45;100.00;101848.66;5045749;28;20045;-82
2022/09/11 10:05:21;;;;;;;34.58;23.33;;;;;;;16.49;100.00;101856.41;5057218;28;20033;-76
2022/09/11 10:07:49;;;;;;;31.10;21.35;;;;;;;16.51;100.00;101851.72;5048260;28;20064;-76
2022/09/11 10:10:36;;;;;;;32.72;21.73;;;;;;;16.54;100.00;101851.44;5044750;28;20045;-75
2022/09/11 10:13:05;;;;;;;36.58;25.27;;;;;;;16.55;100.00;101857.75;5042599;28;20158;-75
2022/09/11 10:15:37;;;;;;;36.90;24.63;;;;;;;16.58;100.00;101852.06;5046593;28;20495;-75
2022/09/11 10:18:22;;;;;;;33.80;23.85;;;;;;;16.62;100.00;101861.69;5046076;28;20079;-76
2022/09/11 10:20:47;;;;;;;34.47;23.30;;;;;;;16.64;100.00;101856.97;5048427;28;20338;-76
2022/09/11 10:23:25;;;;;;;32.97;22.05;;;;;;;16.66;100.00;101852.31;5050418;28;20078;-76
2022/09/11 10:25:51;;;;;;;33.90;22.08;;;;;;;16.67;100.00;101851.28;5051897;28;20056;-76
2022/09/11 10:28:23;;;;;;;32.97;23.23;;;;;;;16.70;100.00;101851.03;5049467;28;20059;-76
2022/09/11 10:30:56;;;;;;;35.33;24.85;;;;;;;16.74;100.00;101855.22;5050881;28;20115;-76
2022/09/11 10:33:38;;;;;;;32.55;21.33;;;;;;;16.74;100.00;101847.09;5038991;28;20040;-76
2022/09/11 10:36:07;;;;;;;32.55;21.95;;;;;;;16.74;100.00;101852.50;5032395;28;20538;-77
2022/09/11 10:38:44;;;;;;;30.15;20.42;;;;;;;16.78;100.00;101851.28;5035757;28;20044;-77
2022/09/11 10:41:12;;;;;;;34.28;23.23;;;;;;;16.85;100.00;101853.47;5048560;28;20032;-77
2022/09/11 10:43:45;;;;;;;33.38;20.98;;;;;;;16.95;100.00;101849.00;5049798;28;20489;-77
2022/09/11 10:46:23;;;;;;;33.83;22.55;;;;;;;17.05;100.00;101849.09;5045622;28;20029;-77
2022/09/11 10:49:02;;;;;;;33.72;22.77;;;;;;;17.13;99.83;101852.03;5050626;28;20025;-77
2022/09/11 10:51:30;;;;;;;34.03;17.45;;;;;;;17.20;97.06;101857.78;5052071;28;20025;-77
2022/09/11 10:54:20;;;;;;;27.42;17.33;;;;;;;17.30;98.54;101850.56;5052254;28;20145;-77
2022/09/11 10:56:56;;;;;;;26.85;16.63;;;;;;;17.43;99.92;101850.38;5050572;28;20052;-77
2022/09/11 10:59:50;;;;;;;27.25;16.48;;;;;;;17.54;96.37;101849.44;5050181;28;20017;-77
2022/09/11 11:02:31;;;;;;;26.25;15.52;;;;;;;17.65;97.99;101852.09;5023395;28;20072;-77
2022/09/11 11:05:01;;;;;;;25.67;15.85;;;;;;;17.70;93.70;101849.84;5032005;28;20029;-77
2022/09/11 11:07:49;;;;;;;25.85;14.25;;;;;;;17.80;95.09;101849.88;5030778;28;20025;-77
2022/09/11 11:10:33;;;;;;;22.45;11.38;;;;;;;17.88;97.45;101855.50;5033714;28;20427;-78
2022/09/11 11:13:03;;;;;;;32.03;17.77;;;;;;;18.01;99.71;101851.72;5040535;28;20459;-77
2022/09/11 11:15:39;;;;;;;27.55;18.45;;;;;;;18.01;98.28;101857.16;5044435;28;20072;-76